Home   Weather   France   Paris   Past weeks
Flag for France

Past Weather in Paris, Paris, France — November 2021

Currently: 68 °F. Passing clouds. (Weather station: Villacoublay, France). See more current weather

November 2021 Weather in Paris — Graph

°F

High & Low Weather Summary for November 2021

 TemperatureHumidityPressure
High55 °F (Nov 1, 1:00 pm)100% (Nov 3, 3:00 am)30.51 "Hg (Nov 3, 3:00 am)
Low30 °F (Nov 11, 7:30 am)49% (Nov 23, 11:30 am)29.12 "Hg (Nov 27, 8:00 am)
Average43 °F89%30.05 "Hg
* Reported Nov 1 12:00 am — Nov 30 11:30 pm, Paris. Weather by CustomWeather, © 2024

Note: Actual official high and low records may vary slightly from our data, if they occured in-between our weather recording intervals... More about our weather records

Paris Weather History for November 1, 2021

Scroll right to see more
 ConditionsComfort  
Time TempWeatherWind HumidityBarometerVisibility
12:00 am
Mon, Nov 1
48 °FPassing clouds.9 mph87%29.59 "HgN/A
12:30 am48 °FPassing clouds.8 mph87%29.59 "HgN/A
1:00 am48 °FPassing clouds.8 mph87%29.59 "HgN/A
1:30 am48 °FPassing clouds.7 mph87%29.59 "HgN/A
2:00 am48 °FPassing clouds.8 mph87%29.56 "HgN/A
2:30 am48 °FPartly cloudy.9 mph87%29.56 "HgN/A
3:00 am48 °FPassing clouds.10 mph87%29.56 "HgN/A
3:30 am48 °FPassing clouds.9 mph87%29.56 "HgN/A
4:00 am46 °FPassing clouds.9 mph93%29.56 "HgN/A
4:30 am46 °FPassing clouds.8 mph93%29.56 "HgN/A
5:00 am46 °FPartly cloudy.10 mph93%29.56 "HgN/A
5:30 am46 °FPassing clouds.9 mph93%29.56 "HgN/A
6:00 am46 °FPassing clouds.9 mph93%29.56 "HgN/A
6:30 am46 °FOvercast.10 mph93%29.56 "HgN/A
7:00 am46 °FPassing clouds.10 mph93%29.56 "HgN/A
7:30 am46 °FPassing clouds.9 mph93%29.56 "HgN/A
8:00 am46 °FScattered clouds.8 mph93%29.59 "HgN/A
8:30 am46 °FScattered clouds.9 mph93%29.59 "HgN/A
9:00 am48 °FPartly sunny.9 mph87%29.59 "HgN/A
9:30 am48 °FPartly sunny.10 mph87%29.59 "HgN/A
10:00 am50 °FPartly sunny.9 mph88%29.59 "HgN/A
10:30 am50 °FPartly sunny.13 mph88%29.59 "HgN/A
11:00 am52 °FPassing clouds.13 mph82%29.59 "HgN/A
11:30 am54 °FPassing clouds.12 mph72%29.59 "HgN/A
12:00 pm54 °FPassing clouds.14 mph72%29.59 "HgN/A
12:30 pm54 °FPassing clouds.15 mph72%29.59 "HgN/A
1:00 pm55 °FBroken clouds.14 mph67%29.59 "HgN/A
1:30 pm54 °FPartly sunny.14 mph67%29.59 "HgN/A
2:00 pm54 °FLight rain. Partly sunny.12 mph72%29.56 "HgN/A
2:30 pm55 °FPartly sunny.10 mph67%29.56 "HgN/A
3:00 pm54 °FPartly sunny.13 mph72%29.56 "HgN/A
3:30 pm50 °FPartly sunny.8 mph82%29.56 "HgN/A
4:00 pm48 °FRain. Partly sunny.9 mph87%29.56 "Hg4 mi
4:30 pm48 °FBroken clouds.3 mph94%29.56 "HgN/A
5:00 pm48 °FPartly sunny.6 mph94%29.56 "HgN/A
5:30 pm46 °FSunny.5 mph93%29.56 "Hg10 mi
6:00 pm46 °FClear.7 mph93%29.56 "Hg10 mi
6:30 pm46 °FClear.6 mph93%29.56 "Hg10 mi
7:00 pm46 °FClear.7 mph93%29.56 "Hg10 mi
7:30 pm46 °FClear.6 mph93%29.59 "Hg10 mi
8:00 pm46 °FClear.2 mph93%29.59 "Hg10 mi
8:30 pm46 °FPassing clouds.5 mph93%29.56 "HgN/A
9:00 pm46 °FPassing clouds.5 mph87%29.59 "HgN/A
9:30 pm46 °FPassing clouds.6 mph87%29.56 "HgN/A
10:00 pm46 °FPassing clouds.7 mph87%29.56 "HgN/A
10:30 pm46 °FPartly cloudy.6 mph93%29.56 "HgN/A
11:00 pm46 °FMostly cloudy.5 mph93%29.56 "HgN/A
11:30 pm46 °FPassing clouds.6 mph93%29.56 "HgN/A
Weather by CustomWeather, © 2024

See weather overview